Route Details

Aircraft Information
Group: Trans-Pacific Ops
Types: B744, MD11
Route Data
Distance: 1601nm
Duration: 4h 40m
Origin METAR: RJAA 080000Z 03014KT 9999 FEW020 BKN045 09/04 Q1015 NOSIG RMK 1CU020 7SC045 A2999
Dest. METAR: VHHH 080000Z 08009KT 9999 FEW008 SCT020 18/15 Q1018 NOSIG
Freight Data
(for Feb 8, 2023)
Load Factor:
52%
Manifested Cargo: 118,073lbs
Financial History
Total Freight: 502,568lbs
Average Load: 0lbs/flt
Fuel Used: 247,555lbs
Avg. Fuel Used: 0lbs/flt
Fuel Expense: $132,152
Avg. Fuel Expense: $0
Avg. Fuel Cost: $0/lbs
Total Gross Income: $1,392,113
Pilot Pay: $777
Total Expenses: $275,889
Total Revenue: $979,813
Average Revenue: $0

Capitol Logistics 844




RJAA
Tokyo-Narita International Airport
Tokyo, JP
VHHH
Chek Lap Kok International
Hong Kong, HK

Activity Log

Date Flight Route Aircraft Duration
07/30/2022 CPX844 PIGOK2 PIGOK Y50 KOSHI A1 ELATO V522 ABBEY ABEY3A B744 3h 46m
07/15/2022 CPX844 PIGOK2 PIGOK Y50 KOSHI A1 ELATO V522 ABBEY ABEY1G MD11 4h 16m
07/09/2022 CPX944 PIGOK2 PIGOK Y50 KOSHI A1 ELATO V522 ABBEY ABEY1G B744 3h 50m